CDT,Max TemperatureF,Mean TemperatureF,Min TemperatureF,Max Dew PointF,MeanDew PointF,Min DewpointF,Max Humidity, Mean Humidity, Min Humidity, Max Sea Level PressureIn, Mean Sea Level PressureIn, Min Sea Level PressureIn, Max VisibilityMiles, Mean VisibilityMiles, Min VisibilityMiles, Max Wind SpeedMPH, Mean Wind SpeedMPH, Max Gust SpeedMPH,PrecipitationIn, CloudCover, Events, WindDirDegrees
2013-3-1,50,39,28,33,28,24,100,73,46,30.17,30.11,30.06,10,7,0,17,7,23,0.00,4,Fog-Rain,300
2013-3-2,40,34,28,27,24,21,85,70,54,30.24,30.18,30.13,10,10,10,17,9,22,0.00,6,,313
2013-3-3,52,39,25,30,22,16,89,57,24,30.27,30.19,30.13,10,10,10,17,4,22,0.00,0,,310
2013-3-4,70,50,29,50,37,27,92,60,28,30.13,30.03,29.92,10,10,10,22,11,35,0.00,2,,183
2013-3-5,71,55,38,59,48,31,93,74,54,30.18,29.99,29.89,10,10,1,29,12,38,0.01,4,Rain,267
2013-3-6,54,43,31,32,27,25,89,62,35,30.32,30.27,30.18,10,10,10,21,8,28,0.00,0,,341
2013-3-7,61,46,30,38,32,28,100,66,31,30.38,30.30,30.25,10,10,8,10,3,14,0.00,0,,32
2013-3-8,70,50,30,40,32,24,100,60,19,30.36,30.27,30.21,10,9,6,8,2,13,0.00,0,,24
2013-3-9,74,58,41,51,40,32,89,56,23,30.19,30.11,30.01,10,9,7,20,7,25,0.00,0,,163
2013-3-10,76,65,53,59,55,51,93,72,50,30.02,29.94,29.87,10,10,7,29,14,39,T,6,,157
2013-3-11,64,51,38,61,47,36,100,78,55,30.03,29.92,29.84,10,7,2,21,8,28,1.36,6,Rain,299
2013-3-12,63,47,31,41,34,30,100,65,30,30.23,30.11,30.03,10,8,1,15,4,21,0.00,1,Rain,343
2013-3-13,61,47,33,37,27,18,100,60,19,30.41,30.32,30.23,10,10,5,21,7,25,0.00,0,,332
2013-3-14,64,47,29,40,29,19,92,58,23,30.46,30.37,30.27,10,10,10,12,4,14,0.00,0,,346
2013-3-15,76,57,37,43,39,35,92,60,27,30.26,30.17,30.06,10,10,10,15,8,22,0.00,0,,211
2013-3-16,77,62,46,51,47,42,93,65,36,30.07,30.00,29.92,10,10,10,21,9,28,0.00,0,,206
2013-3-17,75,62,49,59,54,48,100,77,53,30.01,29.94,29.83,10,7,0,18,8,24,0.00,3,Fog,192
2013-3-18,82,68,54,64,58,54,93,72,51,29.94,29.84,29.76,10,9,2,32,10,41,0.59,7,Rain-Thunderstorm,181
2013-3-19,69,57,45,51,40,32,89,58,26,30.11,30.05,29.96,10,10,10,17,9,23,0.00,0,,20
2013-3-20,65,52,39,40,29,23,70,46,21,30.19,30.10,30.03,10,10,10,16,8,23,T,1,Rain,1
2013-3-21,58,47,35,34,28,22,92,60,27,30.09,30.02,29.91,10,10,10,12,4,15,0.00,2,,48
2013-3-22,49,45,40,45,38,26,96,69,42,30.01,29.93,29.89,10,8,2,17,6,23,0.54,8,Rain,89
2013-3-23,68,58,48,59,53,44,89,79,68,29.88,29.74,29.58,10,9,2,13,5,15,0.11,8,Rain-Thunderstorm,76
2013-3-24,59,50,40,57,49,29,100,74,47,29.96,29.69,29.59,10,6,0,24,11,37,0.74,6,Fog-Rain-Thunderstorm,295
2013-3-25,51,42,32,28,24,17,82,55,27,30.26,30.11,29.98,10,10,10,29,11,38,0.00,1,,300
2013-3-26,51,40,29,30,25,21,89,63,36,30.40,30.33,30.27,10,10,10,20,6,24,0.00,1,,313
2013-3-27,60,44,27,37,28,21,100,63,26,30.45,30.37,30.30,10,10,10,10,2,13,0.00,0,,21
2013-3-28,70,50,30,41,32,26,100,60,20,30.38,30.31,30.24,10,10,10,9,1,12,0.00,0,,40
2013-3-29,74,55,36,49,40,35,93,59,25,30.32,30.24,30.16,10,10,8,16,5,22,0.00,3,,212
2013-3-30,75,62,48,57,52,47,100,73,46,30.18,30.09,29.99,10,9,5,22,6,26,0.02,5,Rain,203
2013-3-31,70,62,53,61,58,53,100,81,61,30.03,29.95,29.85,10,7,1,14,6,20,0.38,5,Rain-Thunderstorm,198